createdAt,value
2023-04-30T00:00:54.249Z,4.70
2023-04-30T00:05:56.072Z,2.57
2023-04-30T00:10:59.691Z,2.40
2023-04-30T00:16:01.838Z,2.37
2023-04-30T00:21:04.526Z,2.63
2023-04-30T00:26:08.054Z,2.30
2023-04-30T00:31:10.234Z,2.00
2023-04-30T00:36:12.393Z,2.00
2023-04-30T00:41:16.655Z,1.43
2023-04-30T00:46:18.401Z,2.60
2023-04-30T00:51:21.203Z,1.60
2023-04-30T00:56:24.620Z,1.40
2023-04-30T01:01:27.912Z,1.70
2023-04-30T01:06:29.819Z,1.40
2023-04-30T01:11:45.461Z,1.40
2023-04-30T01:16:53.087Z,1.27
2023-04-30T01:21:57.888Z,1.40
2023-04-30T01:27:15.944Z,1.70
2023-04-30T01:32:19.294Z,1.40
2023-04-30T01:37:29.466Z,1.50
2023-04-30T01:42:39.788Z,1.67
2023-04-30T01:47:52.997Z,1.73
2023-04-30T01:52:59.112Z,2.10
2023-04-30T01:58:05.348Z,1.83
2023-04-30T02:03:08.967Z,1.70
2023-04-30T02:08:11.250Z,2.00
2023-04-30T02:13:13.474Z,2.00
2023-04-30T02:18:17.004Z,2.10
2023-04-30T02:23:19.147Z,2.00
2023-04-30T02:28:21.286Z,2.50
2023-04-30T02:33:25.380Z,2.27
2023-04-30T02:38:27.609Z,1.80
2023-04-30T02:43:29.776Z,1.90
2023-04-30T02:48:33.315Z,2.10
2023-04-30T02:53:35.482Z,2.10
2023-04-30T02:58:37.636Z,1.80
2023-04-30T03:03:40.986Z,1.87
2023-04-30T03:08:43.221Z,2.17
2023-04-30T03:13:45.786Z,1.77
2023-04-30T03:18:49.906Z,1.90
2023-04-30T03:23:52.083Z,2.33
2023-04-30T03:28:54.180Z,1.83
2023-04-30T03:33:58.161Z,2.37
2023-04-30T03:39:00.231Z,1.70
2023-04-30T03:44:02.372Z,1.87
2023-04-30T03:49:06.010Z,2.10
2023-04-30T03:54:08.194Z,1.90
2023-04-30T03:59:10.362Z,1.70
2023-04-30T04:04:14.063Z,1.87
2023-04-30T04:09:16.239Z,2.17
2023-04-30T04:14:18.318Z,1.53
2023-04-30T04:19:21.476Z,2.03
2023-04-30T04:24:25.153Z,2.60
2023-04-30T04:29:27.346Z,1.93
2023-04-30T04:34:31.067Z,2.90
2023-04-30T04:39:33.169Z,2.33
2023-04-30T04:44:35.031Z,2.40
2023-04-30T04:49:38.554Z,2.20
2023-04-30T04:54:40.714Z,2.37
2023-04-30T04:59:43.144Z,2.00
2023-04-30T05:04:46.945Z,1.40
2023-04-30T05:09:49.189Z,1.70
2023-04-30T05:14:51.320Z,1.40
2023-04-30T05:19:54.922Z,1.70
2023-04-30T05:24:57.496Z,1.17
2023-04-30T05:29:59.644Z,1.30
2023-04-30T05:35:03.580Z,1.23
2023-04-30T05:40:07.189Z,1.50
2023-04-30T05:45:10.342Z,1.67
2023-04-30T05:50:14.016Z,2.20
2023-04-30T05:55:16.148Z,1.47
2023-04-30T06:00:18.417Z,1.40
2023-04-30T06:05:21.743Z,1.30
2023-04-30T06:10:24.077Z,1.70
2023-04-30T06:15:26.158Z,1.30
2023-04-30T06:20:29.750Z,1.40
2023-04-30T06:25:31.527Z,1.40
2023-04-30T06:30:33.923Z,1.80
2023-04-30T06:35:37.593Z,2.33
2023-04-30T06:40:39.711Z,2.10
2023-04-30T06:45:41.440Z,1.93
2023-04-30T06:50:44.845Z,1.63
2023-04-30T06:55:47.012Z,2.37
2023-04-30T07:00:49.133Z,2.70
2023-04-30T07:05:52.888Z,2.47
2023-04-30T07:10:54.908Z,1.73
2023-04-30T07:15:57.181Z,1.80
2023-04-30T07:21:00.287Z,2.07
2023-04-30T07:26:03.303Z,2.23
2023-04-30T07:31:05.708Z,1.70
2023-04-30T07:36:09.439Z,1.40
2023-04-30T07:41:11.503Z,2.07
2023-04-30T07:46:13.572Z,2.10
2023-04-30T07:51:17.169Z,1.50
2023-04-30T07:56:19.301Z,1.80
2023-04-30T08:01:21.391Z,2.37
2023-04-30T08:06:25.646Z,1.90
2023-04-30T08:11:27.993Z,2.33
2023-04-30T08:16:30.166Z,2.03
2023-04-30T08:21:33.775Z,2.13
2023-04-30T08:26:35.566Z,2.67
2023-04-30T08:31:37.866Z,1.83
2023-04-30T08:36:41.525Z,1.83
2023-04-30T08:41:50.525Z,1.50
2023-04-30T08:46:54.349Z,1.70
2023-04-30T08:51:57.506Z,1.70
2023-04-30T08:56:59.581Z,1.50
2023-04-30T09:02:01.775Z,1.40
2023-04-30T09:07:06.865Z,1.37
2023-04-30T09:12:17.823Z,1.60
2023-04-30T09:17:22.100Z,1.20
2023-04-30T09:22:25.301Z,1.40
2023-04-30T09:27:27.791Z,1.77
2023-04-30T09:32:29.625Z,1.37
2023-04-30T09:37:39.132Z,1.23
2023-04-30T09:42:41.014Z,2.03
2023-04-30T09:47:43.025Z,1.60
2023-04-30T09:52:53.231Z,1.50
2023-04-30T09:57:55.660Z,1.55
2023-04-30T10:02:59.666Z,1.50
2023-04-30T10:08:03.323Z,1.40
2023-04-30T10:13:09.445Z,1.30
2023-04-30T10:18:18.021Z,1.20
2023-04-30T10:23:21.565Z,1.17
2023-04-30T10:28:24.071Z,1.33
2023-04-30T10:33:32.271Z,1.57
2023-04-30T10:38:37.796Z,1.53
2023-04-30T10:43:39.791Z,1.50
2023-04-30T10:48:41.617Z,1.70
2023-04-30T10:53:45.400Z,1.33
2023-04-30T10:58:51.200Z,1.63
2023-04-30T11:04:06.216Z,1.60
2023-04-30T11:09:09.746Z,1.60
2023-04-30T11:14:12.654Z,2.23
2023-04-30T11:19:15.320Z,2.03
2023-04-30T11:24:20.227Z,1.87
2023-04-30T11:29:22.996Z,1.77
2023-04-30T11:34:25.327Z,1.70
2023-04-30T11:39:29.566Z,2.00
2023-04-30T11:44:31.241Z,1.40
2023-04-30T11:49:33.749Z,2.30
2023-04-30T11:54:38.109Z,1.93
2023-04-30T11:59:41.168Z,1.73
2023-04-30T12:04:43.307Z,1.40
2023-04-30T12:09:56.545Z,1.50
2023-04-30T12:14:58.808Z,1.50
2023-04-30T12:20:00.965Z,1.70
2023-04-30T12:25:08.961Z,1.47
2023-04-30T12:30:11.476Z,1.50
2023-04-30T12:35:14.947Z,1.57
2023-04-30T12:40:19.918Z,1.43
2023-04-30T12:45:43.907Z,1.30
2023-04-30T12:50:52.679Z,1.70
2023-04-30T12:56:13.314Z,1.37
2023-04-30T13:01:17.867Z,1.50
2023-04-30T13:06:21.265Z,1.70
2023-04-30T13:11:24.680Z,1.40
2023-04-30T13:16:26.951Z,1.73
2023-04-30T13:21:28.812Z,1.70
2023-04-30T13:26:32.392Z,1.47
2023-04-30T13:31:34.240Z,1.73
2023-04-30T13:36:36.332Z,1.77
2023-04-30T13:41:40.198Z,1.40
2023-04-30T13:46:42.240Z,1.23
2023-04-30T13:51:44.355Z,1.50
2023-04-30T13:56:47.489Z,1.93
2023-04-30T14:01:49.475Z,1.90
2023-04-30T14:06:51.774Z,1.53
2023-04-30T14:11:55.410Z,1.40
2023-04-30T14:16:57.467Z,1.37
2023-04-30T14:21:59.186Z,1.60
2023-04-30T14:27:02.622Z,1.53
2023-04-30T14:32:07.863Z,1.67
2023-04-30T14:37:10.085Z,1.23
2023-04-30T14:42:13.420Z,1.30
2023-04-30T14:47:17.790Z,1.20
2023-04-30T14:52:19.899Z,1.50
2023-04-30T14:57:23.530Z,1.60
2023-04-30T15:02:25.433Z,1.40
2023-04-30T15:07:27.721Z,1.70
2023-04-30T15:12:30.917Z,1.70
2023-04-30T15:17:32.909Z,1.60
2023-04-30T15:22:34.693Z,1.40
2023-04-30T15:27:38.024Z,1.60
2023-04-30T15:32:39.961Z,1.60
2023-04-30T15:37:42.086Z,1.40
2023-04-30T15:42:45.448Z,1.60
2023-04-30T15:47:47.256Z,1.67
2023-04-30T15:52:49.543Z,1.67
2023-04-30T15:57:52.742Z,1.40
2023-04-30T16:02:55.258Z,2.40
2023-04-30T16:07:57.517Z,1.80
2023-04-30T16:13:01.016Z,1.67
2023-04-30T16:18:03.267Z,1.63
2023-04-30T16:23:05.856Z,1.50
2023-04-30T16:28:09.203Z,2.53
2023-04-30T16:33:11.139Z,1.53
2023-04-30T16:38:13.239Z,1.60
2023-04-30T16:43:16.911Z,1.70
2023-04-30T16:48:18.791Z,1.60
2023-04-30T16:53:20.999Z,1.53
2023-04-30T16:58:24.647Z,1.53
2023-04-30T17:03:26.891Z,1.70
2023-04-30T17:08:28.862Z,1.40
2023-04-30T17:13:32.278Z,2.50
2023-04-30T17:18:33.981Z,3.00
2023-04-30T17:23:35.725Z,2.60
2023-04-30T17:28:39.007Z,1.60
2023-04-30T17:33:41.524Z,1.90
2023-04-30T17:38:43.684Z,1.53
2023-04-30T17:43:47.503Z,2.10
2023-04-30T17:48:49.678Z,2.00
2023-04-30T17:53:51.327Z,1.37
2023-04-30T17:58:54.810Z,1.90
2023-04-30T18:03:59.499Z,3.03
2023-04-30T18:09:01.361Z,2.90
2023-04-30T18:14:04.560Z,1.60
2023-04-30T18:19:06.452Z,1.70
2023-04-30T18:24:08.237Z,1.47
2023-04-30T18:29:11.422Z,2.10
2023-04-30T18:34:13.683Z,1.80
2023-04-30T18:39:15.395Z,2.30
2023-04-30T18:44:19.696Z,2.47
2023-04-30T18:49:21.387Z,3.30
2023-04-30T18:54:23.865Z,3.20
2023-04-30T18:59:26.904Z,3.30
2023-04-30T19:04:29.027Z,4.97
2023-04-30T19:09:30.787Z,4.13
2023-04-30T19:14:35.449Z,6.67
2023-04-30T19:19:37.158Z,5.93
2023-04-30T19:24:38.831Z,4.83
2023-04-30T19:29:42.335Z,5.83
2023-04-30T19:34:44.053Z,4.23
2023-04-30T19:39:46.179Z,4.63
2023-04-30T19:44:51.997Z,4.63
2023-04-30T19:49:54.003Z,6.53
2023-04-30T19:54:56.297Z,4.23
2023-04-30T19:59:59.793Z,4.10
2023-04-30T20:05:01.529Z,4.00
2023-04-30T20:10:04.007Z,3.37
2023-04-30T20:15:08.406Z,3.50
2023-04-30T20:20:11.370Z,3.37
2023-04-30T20:25:13.176Z,3.47
2023-04-30T20:30:16.976Z,3.13
2023-04-30T20:35:18.718Z,4.30
2023-04-30T20:40:20.754Z,3.83
2023-04-30T20:45:24.482Z,3.70
2023-04-30T20:50:26.541Z,2.73
2023-04-30T20:55:28.640Z,3.50
2023-04-30T21:00:31.760Z,3.20
2023-04-30T21:05:34.313Z,4.80
2023-04-30T21:10:37.057Z,4.20
2023-04-30T21:15:40.458Z,3.50
2023-04-30T21:20:42.408Z,3.00
2023-04-30T21:25:44.888Z,4.17
2023-04-30T21:30:48.771Z,3.97
2023-04-30T21:35:51.093Z,5.73
2023-04-30T21:40:54.123Z,6.37
2023-04-30T21:46:02.866Z,11.23
2023-04-30T21:51:11.662Z,8.27
2023-04-30T21:56:14.164Z,7.37
2023-04-30T22:01:17.832Z,5.53
2023-04-30T22:06:19.584Z,4.17
2023-04-30T22:11:21.746Z,4.53
2023-04-30T22:16:25.314Z,4.87
2023-04-30T22:21:27.185Z,4.60
2023-04-30T22:26:28.872Z,3.63
2023-04-30T22:31:31.997Z,4.23
2023-04-30T22:36:34.137Z,4.63
2023-04-30T22:41:36.242Z,4.57
2023-04-30T22:46:39.950Z,3.63
2023-04-30T22:51:43.100Z,3.67
2023-04-30T22:56:44.831Z,4.37
2023-04-30T23:01:48.430Z,4.67
2023-04-30T23:06:50.220Z,4.33
2023-04-30T23:11:52.016Z,4.37
2023-04-30T23:16:55.255Z,4.53
2023-04-30T23:21:57.442Z,4.10
2023-04-30T23:26:59.864Z,4.77
2023-04-30T23:32:03.444Z,4.33
2023-04-30T23:37:05.824Z,4.00
2023-04-30T23:42:08.293Z,3.93
2023-04-30T23:47:11.773Z,4.17
2023-04-30T23:52:13.512Z,4.20
2023-04-30T23:57:15.636Z,4.83
